Time;durP1;ratioP1;P1;durP2;ratioP2;P2;SDS_P1;SDS_P2;PMS_P1;PMS_P2;Temp;Humidity;BMP_temperature;BMP_pressure;BME280_temperature;BME280_humidity;BME280_pressure;Samples;Min_cycle;Max_cycle;Signal;HPM_P1;HPM_P2
2023/10/31 00:02:16;;;;;;;384.27;366.60;;;9.50;99.90;;;;;;4880769;29;20104;-75
2023/10/31 00:04:42;;;;;;;420.13;400.27;;;9.40;99.90;;;;;;4877820;29;20040;-75
2023/10/31 00:07:08;;;;;;;419.97;400.43;;;9.40;99.90;;;;;;4879621;29;20084;-75
2023/10/31 00:09:34;;;;;;;467.90;445.87;;;9.40;99.90;;;;;;4875357;29;20093;-75
2023/10/31 00:11:59;;;;;;;483.03;460.17;;;9.40;99.90;;;;;;4891137;29;20052;-75
2023/10/31 00:14:25;;;;;;;452.47;431.13;;;9.40;99.90;;;;;;4877314;29;20128;-75
2023/10/31 00:16:51;;;;;;;421.90;402.17;;;9.40;99.90;;;;;;4877515;29;20093;-75
2023/10/31 00:19:17;;;;;;;356.20;339.67;;;9.40;99.90;;;;;;4892989;29;20043;-75
2023/10/31 00:21:42;;;;;;;431.93;411.30;;;9.40;99.90;;;;;;4878355;29;20080;-75
2023/10/31 00:24:08;;;;;;;377.63;360.87;;;9.40;99.90;;;;;;4877324;29;20045;-75
2023/10/31 00:26:34;;;;;;;325.70;311.37;;;9.30;99.90;;;;;;4876204;29;20083;-75
2023/10/31 00:29:00;;;;;;;410.97;392.90;;;9.30;99.90;;;;;;4876822;29;20108;-75
2023/10/31 00:31:25;;;;;;;408.47;389.23;;;9.30;99.90;;;;;;4896239;29;20041;-75
2023/10/31 00:33:51;;;;;;;401.27;383.10;;;9.40;99.90;;;;;;4895654;29;20161;-75
2023/10/31 00:36:17;;;;;;;410.67;391.63;;;9.40;99.90;;;;;;4892882;29;20532;-75
2023/10/31 00:38:42;;;;;;;402.97;384.53;;;9.40;99.90;;;;;;4892282;29;20049;-75
2023/10/31 00:41:08;;;;;;;394.53;377.03;;;9.40;99.90;;;;;;4876468;29;20655;-75
2023/10/31 00:43:34;;;;;;;408.97;390.10;;;9.40;99.90;;;;;;4888622;29;20096;-75
2023/10/31 00:46:01;;;;;;;371.70;354.83;;;9.40;99.90;;;;;;4891740;29;20115;-75
2023/10/31 00:48:27;;;;;;;397.47;379.17;;;9.40;99.90;;;;;;4892795;29;20495;-75
2023/10/31 00:50:52;;;;;;;403.73;384.70;;;9.40;99.90;;;;;;4888262;29;20392;-75
2023/10/31 00:53:18;;;;;;;404.53;385.53;;;9.40;99.90;;;;;;4877192;29;20100;-75
2023/10/31 00:55:44;;;;;;;421.23;401.97;;;9.40;99.90;;;;;;4877887;29;20047;-75
2023/10/31 00:58:10;;;;;;;373.07;355.70;;;9.50;99.90;;;;;;4886572;29;20107;-75
2023/10/31 01:00:37;;;;;;;416.63;396.70;;;9.50;99.90;;;;;;4891222;29;20296;-75
2023/10/31 01:03:03;;;;;;;408.00;389.47;;;9.50;99.90;;;;;;4891585;29;20055;-75
2023/10/31 01:05:28;;;;;;;421.10;400.80;;;9.50;99.90;;;;;;4892033;29;20301;-75
2023/10/31 01:07:55;;;;;;;436.67;416.13;;;9.50;99.90;;;;;;4875428;29;20311;-75
2023/10/31 01:10:21;;;;;;;408.00;388.43;;;9.40;99.90;;;;;;4891692;29;20406;-75
2023/10/31 01:12:47;;;;;;;396.07;377.70;;;9.40;99.90;;;;;;4891783;29;20292;-76
2023/10/31 01:15:12;;;;;;;397.83;378.57;;;9.40;99.90;;;;;;4876223;29;20355;-76
2023/10/31 01:17:38;;;;;;;396.70;378.30;;;9.40;99.90;;;;;;4904728;29;20125;-76
2023/10/31 01:20:05;;;;;;;411.37;391.70;;;9.40;99.90;;;;;;4891177;29;20490;-76
2023/10/31 01:22:30;;;;;;;408.77;389.40;;;9.40;99.90;;;;;;4880100;29;20493;-76
2023/10/31 01:24:56;;;;;;;429.03;408.70;;;9.40;99.90;;;;;;4891576;29;20304;-76
2023/10/31 01:27:22;;;;;;;401.07;382.23;;;9.30;99.90;;;;;;4875591;29;20115;-75
2023/10/31 01:29:48;;;;;;;389.90;371.40;;;9.30;99.90;;;;;;4879466;29;20075;-75
2023/10/31 01:32:13;;;;;;;420.23;400.30;;;9.30;99.90;;;;;;4896581;29;20131;-75
2023/10/31 01:34:39;;;;;;;440.50;418.40;;;9.30;99.90;;;;;;4893255;29;20417;-75
2023/10/31 01:37:05;;;;;;;174.47;166.07;;;9.30;99.90;;;;;;4876582;29;20044;-75
2023/10/31 01:39:30;;;;;;;207.13;196.00;;;9.30;99.90;;;;;;4888625;29;20040;-75
2023/10/31 01:41:56;;;;;;;153.13;145.87;;;9.30;99.90;;;;;;4888421;29;20650;-76
2023/10/31 01:44:22;;;;;;;357.90;340.87;;;9.30;99.90;;;;;;4889776;29;20043;-75
2023/10/31 01:46:47;;;;;;;472.00;449.43;;;9.30;99.90;;;;;;4891113;29;20135;-76
2023/10/31 01:49:14;;;;;;;434.70;413.27;;;9.30;99.90;;;;;;4874911;29;20040;-76
2023/10/31 01:51:41;;;;;;;497.20;472.63;;;9.30;99.90;;;;;;4890874;29;20037;-76
2023/10/31 01:54:09;;;;;;;476.43;452.70;;;9.30;99.90;;;;;;4888974;29;20501;-75
2023/10/31 01:56:34;;;;;;;517.63;492.10;;;9.30;99.90;;;;;;4894562;29;20300;-75
2023/10/31 01:59:00;;;;;;;546.10;518.90;;;9.30;99.90;;;;;;4889739;29;20293;-75
2023/10/31 02:01:27;;;;;;;515.83;490.63;;;9.30;99.90;;;;;;4893653;29;20044;-75
2023/10/31 02:03:53;;;;;;;507.27;482.20;;;9.30;99.90;;;;;;4866850;29;20308;-75
2023/10/31 02:06:19;;;;;;;508.20;483.13;;;9.30;99.90;;;;;;4891137;29;20330;-75
2023/10/31 02:08:47;;;;;;;568.60;540.27;;;9.30;99.90;;;;;;4891661;29;20698;-75
2023/10/31 02:11:13;;;;;;;495.60;471.40;;;9.30;99.90;;;;;;4875048;29;20044;-75
2023/10/31 02:13:39;;;;;;;475.20;451.83;;;9.30;99.90;;;;;;4886283;29;20341;-76
2023/10/31 02:16:05;;;;;;;567.53;538.80;;;9.40;99.90;;;;;;4876224;29;20052;-75
2023/10/31 02:18:32;;;;;;;583.57;553.27;;;9.40;99.90;;;;;;4890804;29;20303;-75
2023/10/31 02:20:58;;;;;;;557.17;529.13;;;9.40;99.90;;;;;;4886415;29;20387;-75
2023/10/31 02:23:24;;;;;;;540.57;512.93;;;9.40;99.90;;;;;;4891689;29;20320;-75
2023/10/31 02:25:49;;;;;;;532.50;505.93;;;9.40;99.90;;;;;;4890623;29;20793;-75
2023/10/31 02:28:15;;;;;;;565.43;536.47;;;9.40;99.90;;;;;;4908347;29;20044;-75
2023/10/31 02:30:41;;;;;;;482.80;458.80;;;9.40;99.90;;;;;;4890336;29;20136;-76
2023/10/31 02:33:07;;;;;;;531.83;504.83;;;9.40;99.90;;;;;;4875304;29;20044;-75
2023/10/31 02:35:32;;;;;;;484.40;460.07;;;9.40;99.90;;;;;;4891248;29;20288;-75
2023/10/31 02:37:58;;;;;;;568.80;539.70;;;9.40;99.90;;;;;;4916131;29;20127;-75
2023/10/31 02:40:24;;;;;;;559.93;530.37;;;9.40;99.90;;;;;;4890519;29;20046;-75
2023/10/31 02:42:50;;;;;;;560.43;531.53;;;9.40;99.90;;;;;;4888996;29;20124;-76
2023/10/31 02:45:15;;;;;;;563.30;534.57;;;9.40;99.90;;;;;;4893675;29;20041;-75
2023/10/31 02:47:41;;;;;;;576.50;547.07;;;9.40;99.90;;;;;;4894716;29;20076;-75
2023/10/31 02:50:07;;;;;;;175.07;166.13;;;9.50;99.90;;;;;;4891044;29;20041;-75
2023/10/31 02:52:33;;;;;;;173.13;164.20;;;9.50;99.90;;;;;;4867460;29;20049;-74
2023/10/31 02:54:59;;;;;;;208.27;197.80;;;9.50;99.90;;;;;;4882726;29;20343;-74
2023/10/31 02:57:24;;;;;;;182.43;173.87;;;9.50;99.90;;;;;;4896817;29;20045;-74
2023/10/31 02:59:50;;;;;;;180.53;171.77;;;9.50;99.90;;;;;;4878467;29;20041;-74
2023/10/31 03:02:16;;;;;;;165.93;158.17;;;9.60;99.90;;;;;;4893398;29;20044;-74
2023/10/31 03:04:41;;;;;;;176.70;168.47;;;9.60;99.90;;;;;;4894904;29;20037;-74
2023/10/31 03:07:07;;;;;;;167.87;159.77;;;9.60;99.90;;;;;;4880144;29;20045;-74
2023/10/31 03:09:33;;;;;;;189.63;180.70;;;9.60;99.90;;;;;;4884964;29;20051;-74
2023/10/31 03:11:59;;;;;;;194.83;185.83;;;9.60;99.90;;;;;;4877379;29;20037;-74
2023/10/31 03:14:25;;;;;;;180.20;171.77;;;9.60;99.90;;;;;;4892352;29;20063;-74
2023/10/31 03:16:50;;;;;;;175.47;167.30;;;9.60;99.90;;;;;;4894128;29;20062;-75
2023/10/31 03:19:16;;;;;;;213.70;203.83;;;9.60;99.90;;;;;;4894597;29;20633;-75
2023/10/31 03:21:42;;;;;;;472.80;449.60;;;9.60;99.90;;;;;;4874808;29;20041;-75
2023/10/31 03:24:08;;;;;;;439.07;417.97;;;9.70;99.90;;;;;;4894607;29;20453;-75
2023/10/31 03:26:34;;;;;;;450.70;429.10;;;9.70;99.90;;;;;;4901454;29;20104;-75
2023/10/31 03:28:59;;;;;;;405.27;386.07;;;9.70;99.90;;;;;;4884292;29;20277;-75
2023/10/31 03:31:25;;;;;;;453.60;431.73;;;9.70;99.90;;;;;;4893909;29;20181;-75
2023/10/31 03:33:51;;;;;;;478.30;455.73;;;9.70;99.90;;;;;;4893696;29;20651;-76
2023/10/31 03:36:17;;;;;;;484.10;461.20;;;9.70;99.90;;;;;;4887939;29;20289;-76
2023/10/31 03:38:43;;;;;;;460.20;438.13;;;9.60;99.90;;;;;;4894248;29;20072;-76
2023/10/31 03:41:09;;;;;;;472.40;449.57;;;9.60;99.90;;;;;;4876080;29;20319;-75
2023/10/31 03:43:35;;;;;;;344.03;325.97;;;9.60;99.90;;;;;;4887488;29;20041;-75
2023/10/31 03:46:01;;;;;;;207.83;197.93;;;9.60;99.90;;;;;;4874359;29;20101;-75
2023/10/31 03:48:27;;;;;;;163.77;156.40;;;9.60;99.90;;;;;;4876590;29;20284;-75
2023/10/31 03:50:53;;;;;;;139.17;133.07;;;9.60;99.90;;;;;;4874254;29;20048;-75
2023/10/31 03:53:19;;;;;;;146.97;140.37;;;9.60;99.90;;;;;;4877389;29;20127;-75
2023/10/31 03:55:44;;;;;;;173.33;165.90;;;9.50;99.90;;;;;;4870084;29;20380;-75
2023/10/31 03:58:10;;;;;;;204.87;195.80;;;9.50;99.90;;;;;;4879685;29;20119;-75
2023/10/31 04:00:36;;;;;;;165.53;158.53;;;9.50;99.90;;;;;;4893637;29;20642;-75
2023/10/31 04:03:02;;;;;;;170.40;162.87;;;9.50;99.90;;;;;;4877125;29;20037;-75
2023/10/31 04:05:27;;;;;;;194.07;185.57;;;9.50;99.90;;;;;;4882831;29;20512;-75
2023/10/31 04:07:54;;;;;;;153.23;146.73;;;9.40;99.90;;;;;;4894177;29;20159;-75
2023/10/31 04:10:19;;;;;;;134.37;128.27;;;9.40;99.90;;;;;;4892940;29;20044;-75
2023/10/31 04:12:46;;;;;;;166.47;159.20;;;9.40;99.90;;;;;;4876139;29;20793;-76
2023/10/31 04:15:12;;;;;;;163.83;156.40;;;9.40;99.90;;;;;;4893140;29;20084;-75
2023/10/31 04:17:38;;;;;;;207.97;197.23;;;9.40;99.90;;;;;;4893965;29;20316;-76
2023/10/31 04:20:04;;;;;;;166.50;159.27;;;9.40;99.90;;;;;;4892276;29;20056;-76
2023/10/31 04:22:30;;;;;;;136.97;130.93;;;9.40;99.90;;;;;;4892556;29;21097;-76
2023/10/31 04:24:56;;;;;;;159.27;152.07;;;9.30;99.90;;;;;;4873710;29;20304;-76
2023/10/31 04:27:22;;;;;;;160.93;153.47;;;9.30;99.90;;;;;;4875943;29;20040;-76
2023/10/31 04:29:47;;;;;;;111.83;106.97;;;9.30;99.90;;;;;;4876812;29;20067;-76
2023/10/31 04:32:13;;;;;;;246.73;234.07;;;9.40;99.90;;;;;;4891673;29;20076;-76
2023/10/31 04:34:39;;;;;;;180.63;172.27;;;9.40;99.90;;;;;;4892716;29;20052;-75
2023/10/31 04:37:05;;;;;;;179.77;171.33;;;9.40;99.90;;;;;;4878101;29;20043;-76
2023/10/31 04:39:31;;;;;;;146.83;140.17;;;9.40;99.90;;;;;;4887888;29;20372;-76
2023/10/31 04:41:57;;;;;;;139.37;133.17;;;9.40;99.90;;;;;;4881185;29;20055;-75
2023/10/31 04:44:22;;;;;;;113.40;108.57;;;9.40;99.90;;;;;;4879342;29;20105;-75
2023/10/31 04:46:48;;;;;;;112.13;107.23;;;9.50;99.90;;;;;;4912130;29;20865;-76
2023/10/31 04:49:15;;;;;;;123.47;117.90;;;9.50;99.90;;;;;;4891841;29;20041;-76
2023/10/31 04:51:41;;;;;;;195.97;185.87;;;9.50;99.90;;;;;;4877448;29;20131;-76
2023/10/31 04:54:07;;;;;;;154.33;146.20;;;9.50;99.90;;;;;;4884034;29;20321;-76
2023/10/31 04:56:33;;;;;;;183.73;175.13;;;9.60;99.90;;;;;;4886973;29;20309;-76
2023/10/31 04:58:59;;;;;;;255.40;240.83;;;9.60;99.90;;;;;;4891999;29;20044;-76
2023/10/31 05:01:25;;;;;;;178.50;169.03;;;9.60;99.90;;;;;;4881475;29;20754;-76
2023/10/31 05:03:51;;;;;;;127.90;122.33;;;9.60;99.90;;;;;;4889418;29;20033;-76
2023/10/31 05:06:22;;;;;;;121.93;116.43;;;9.60;99.90;;;;;;4877808;29;20525;-76
2023/10/31 05:08:48;;;;;;;167.87;160.27;;;9.60;99.90;;;;;;4877185;29;20793;-76
2023/10/31 05:11:18;;;;;;;141.87;135.60;;;9.60;99.90;;;;;;4877476;29;20304;-76
2023/10/31 05:13:44;;;;;;;141.53;135.43;;;9.60;99.90;;;;;;4894402;29;20316;-76
2023/10/31 05:16:11;;;;;;;358.77;336.40;;;9.60;99.90;;;;;;4891992;29;20289;-76
2023/10/31 05:18:38;;;;;;;166.30;158.70;;;9.60;99.90;;;;;;4873880;29;20305;-76
2023/10/31 05:21:05;;;;;;;143.37;136.80;;;9.60;99.90;;;;;;4871502;29;20281;-76
2023/10/31 05:23:30;;;;;;;113.10;108.20;;;9.60;99.90;;;;;;4876954;29;20813;-76
2023/10/31 05:25:56;;;;;;;109.33;104.40;;;9.60;99.90;;;;;;4876273;29;20320;-76
2023/10/31 05:28:23;;;;;;;129.23;123.50;;;9.60;99.90;;;;;;4883631;29;20041;-76
2023/10/31 05:30:49;;;;;;;109.80;105.03;;;9.60;99.90;;;;;;4889973;29;20052;-76
2023/10/31 05:33:18;;;;;;;224.67;212.00;;;9.60;99.90;;;;;;4888758;29;20320;-76
2023/10/31 05:35:43;;;;;;;143.73;137.33;;;9.60;99.90;;;;;;4892599;29;20295;-76
2023/10/31 05:38:09;;;;;;;170.43;162.50;;;9.60;99.90;;;;;;4894293;29;20278;-76
2023/10/31 05:40:35;;;;;;;124.13;118.67;;;9.60;99.90;;;;;;4890716;29;20445;-76
2023/10/31 05:43:04;;;;;;;160.10;152.63;;;9.60;99.90;;;;;;4873814;29;20084;-76
2023/10/31 05:45:30;;;;;;;121.00;115.60;;;9.60;99.90;;;;;;4873429;29;20505;-76
2023/10/31 05:47:56;;;;;;;140.17;133.93;;;9.60;99.90;;;;;;4891834;29;20289;-76
2023/10/31 05:50:22;;;;;;;164.07;156.57;;;9.60;99.90;;;;;;4893912;29;20804;-75
2023/10/31 05:52:48;;;;;;;162.37;155.27;;;9.60;99.90;;;;;;4889723;29;20048;-76
2023/10/31 05:55:13;;;;;;;187.47;179.40;;;9.70;99.90;;;;;;4891472;29;20048;-76
2023/10/31 05:57:40;;;;;;;185.07;176.67;;;9.70;99.90;;;;;;4876182;29;20084;-76
2023/10/31 06:00:07;;;;;;;249.67;238.80;;;9.70;99.90;;;;;;4869246;29;20083;-75
2023/10/31 06:02:33;;;;;;;319.47;305.53;;;9.60;99.90;;;;;;4889009;29;20300;-76
2023/10/31 06:04:59;;;;;;;445.23;423.23;;;9.70;99.90;;;;;;4873022;29;20355;-76
2023/10/31 06:07:24;;;;;;;409.47;390.67;;;9.70;99.90;;;;;;4890228;29;20836;-76
2023/10/31 06:09:50;;;;;;;458.37;436.87;;;9.70;99.90;;;;;;4876366;29;20293;-76
2023/10/31 06:12:16;;;;;;;423.20;404.07;;;9.70;99.90;;;;;;4873155;29;20041;-76
2023/10/31 06:14:42;;;;;;;413.77;395.23;;;9.80;99.90;;;;;;4875254;29;20044;-76
2023/10/31 06:17:07;;;;;;;437.63;417.70;;;9.80;99.90;;;;;;4891561;29;20053;-76
2023/10/31 06:19:37;;;;;;;445.13;423.93;;;9.80;99.90;;;;;;4880750;29;20036;-76
2023/10/31 06:22:03;;;;;;;433.00;413.43;;;9.80;99.90;;;;;;4890167;29;20556;-75
2023/10/31 06:24:29;;;;;;;405.80;387.43;;;9.70;99.90;;;;;;4875091;29;20297;-75
2023/10/31 06:26:55;;;;;;;411.80;393.17;;;9.70;99.90;;;;;;4876210;29;20292;-75
2023/10/31 06:29:21;;;;;;;477.10;452.97;;;9.70;99.90;;;;;;4892108;29;20714;-76
2023/10/31 06:31:47;;;;;;;488.03;464.80;;;9.70;99.90;;;;;;4890997;29;20044;-76
2023/10/31 06:34:13;;;;;;;481.77;459.07;;;9.60;99.90;;;;;;4875595;29;20731;-75
2023/10/31 06:36:39;;;;;;;489.43;466.77;;;9.60;99.90;;;;;;4872965;29;20303;-75
2023/10/31 06:39:04;;;;;;;518.57;493.97;;;9.60;99.90;;;;;;4891461;29;20048;-76
2023/10/31 06:41:30;;;;;;;502.80;479.03;;;9.50;99.90;;;;;;4877113;29;20055;-76
2023/10/31 06:43:56;;;;;;;442.63;422.27;;;9.50;99.90;;;;;;4871038;29;20572;-75
2023/10/31 06:46:22;;;;;;;427.70;408.90;;;9.50;99.90;;;;;;4874083;29;20048;-76
2023/10/31 06:48:47;;;;;;;430.43;410.40;;;9.40;99.90;;;;;;4891834;29;20049;-75
2023/10/31 06:51:13;;;;;;;426.73;407.47;;;9.40;99.90;;;;;;4887092;29;20049;-75
2023/10/31 06:53:39;;;;;;;459.27;437.97;;;9.30;99.90;;;;;;4876530;29;20148;-76
2023/10/31 06:56:04;;;;;;;432.17;412.20;;;9.30;99.90;;;;;;4898765;29;20465;-76
2023/10/31 06:58:30;;;;;;;390.03;372.73;;;9.30;99.90;;;;;;4872469;29;20041;-75
2023/10/31 07:00:58;;;;;;;417.33;398.73;;;9.30;99.90;;;;;;4874832;29;20648;-75
2023/10/31 07:03:24;;;;;;;422.17;403.13;;;9.30;99.90;;;;;;4891390;29;20147;-75
2023/10/31 07:05:49;;;;;;;398.67;380.73;;;9.20;99.90;;;;;;4871362;29;20650;-75
2023/10/31 07:08:15;;;;;;;361.63;345.13;;;9.30;99.90;;;;;;4890454;29;20293;-75
2023/10/31 07:10:41;;;;;;;360.53;344.77;;;9.30;99.90;;;;;;4875546;29;20041;-75
2023/10/31 07:13:06;;;;;;;327.27;313.20;;;9.40;99.90;;;;;;4890184;29;20904;-75
2023/10/31 07:15:32;;;;;;;351.37;335.63;;;9.40;99.90;;;;;;4914382;29;20055;-75
2023/10/31 07:17:58;;;;;;;373.30;356.27;;;9.50;99.90;;;;;;4882280;29;20151;-75
2023/10/31 07:20:24;;;;;;;307.07;293.60;;;9.50;99.90;;;;;;4875272;29;20056;-75
2023/10/31 07:22:50;;;;;;;329.47;314.60;;;9.60;99.90;;;;;;4889940;29;20306;-75
2023/10/31 07:25:15;;;;;;;309.67;295.67;;;9.60;99.90;;;;;;4892585;29;20040;-75
2023/10/31 07:27:41;;;;;;;340.07;322.53;;;9.60;99.90;;;;;;4892643;29;20295;-75
2023/10/31 07:30:07;;;;;;;328.13;313.97;;;9.60;99.90;;;;;;4875264;29;20123;-75
2023/10/31 07:32:33;;;;;;;352.60;336.37;;;9.70;99.90;;;;;;4878587;29;20052;-75
2023/10/31 07:34:59;;;;;;;365.07;348.83;;;9.70;99.90;;;;;;4893991;29;20055;-75
2023/10/31 07:37:24;;;;;;;393.63;374.70;;;9.70;99.90;;;;;;4878717;29;20063;-75
2023/10/31 07:39:53;;;;;;;345.57;329.87;;;9.70;99.90;;;;;;4892223;29;20162;-75
2023/10/31 07:42:18;;;;;;;279.27;266.50;;;9.80;99.90;;;;;;4893397;29;20051;-75
2023/10/31 07:44:44;;;;;;;273.97;262.20;;;9.80;99.90;;;;;;4893781;29;20792;-75
2023/10/31 07:47:10;;;;;;;314.53;301.20;;;9.90;99.90;;;;;;4887918;29;20076;-75
2023/10/31 07:49:35;;;;;;;315.13;300.93;;;9.90;99.90;;;;;;4877064;29;20041;-75
2023/10/31 07:52:01;;;;;;;311.93;297.97;;;10.00;99.90;;;;;;4878143;29;20084;-75
2023/10/31 07:54:27;;;;;;;321.40;307.40;;;10.00;99.90;;;;;;4893509;29;20152;-75
2023/10/31 07:56:52;;;;;;;386.97;369.50;;;10.00;99.90;;;;;;4894069;29;20060;-75
2023/10/31 07:59:18;;;;;;;341.97;326.77;;;10.10;99.90;;;;;;4893330;29;20055;-75
2023/10/31 08:01:44;;;;;;;354.23;337.93;;;10.10;99.90;;;;;;4877679;29;20048;-75
2023/10/31 08:04:09;;;;;;;337.17;322.43;;;10.10;99.90;;;;;;4894072;29;20047;-75
2023/10/31 08:06:35;;;;;;;324.03;309.97;;;10.20;99.90;;;;;;4877633;29;20135;-75
2023/10/31 08:09:01;;;;;;;339.47;324.53;;;10.20;99.90;;;;;;4895766;29;20040;-75
2023/10/31 08:11:27;;;;;;;310.50;296.67;;;10.20;99.90;;;;;;4893241;29;20050;-75
2023/10/31 08:13:53;;;;;;;405.03;383.77;;;10.30;99.90;;;;;;4877848;29;20301;-75
2023/10/31 08:16:19;;;;;;;320.07;306.30;;;10.30;99.90;;;;;;4912308;29;20115;-75
2023/10/31 08:18:45;;;;;;;318.80;305.17;;;10.40;99.90;;;;;;4876603;29;20055;-75
2023/10/31 08:21:12;;;;;;;359.57;343.30;;;10.50;99.90;;;;;;4876831;29;20374;-75
2023/10/31 08:23:38;;;;;;;443.07;419.90;;;10.60;99.90;;;;;;4875711;29;20316;-75
2023/10/31 08:26:04;;;;;;;525.53;495.90;;;10.70;99.90;;;;;;4891411;29;20293;-75
2023/10/31 08:28:30;;;;;;;515.77;490.00;;;10.80;99.90;;;;;;4875193;29;20036;-76
2023/10/31 08:30:57;;;;;;;509.17;478.83;;;10.80;99.90;;;;;;4874117;29;20296;-76
2023/10/31 08:33:23;;;;;;;482.10;456.57;;;10.80;99.90;;;;;;4878751;29;20292;-77
2023/10/31 08:35:50;;;;;;;481.30;456.77;;;10.70;99.90;;;;;;4875953;29;20289;-76
2023/10/31 08:38:16;;;;;;;466.43;444.30;;;10.60;99.90;;;;;;4880885;29;20056;-77
2023/10/31 08:40:42;;;;;;;461.23;439.73;;;10.50;99.90;;;;;;4891641;29;20289;-76
2023/10/31 08:43:08;;;;;;;565.30;533.00;;;10.40;99.90;;;;;;4877707;29;20045;-77
2023/10/31 08:45:34;;;;;;;404.77;384.10;;;10.30;99.90;;;;;;4876547;29;20300;-76
2023/10/31 08:48:00;;;;;;;414.57;394.57;;;10.30;99.90;;;;;;4870180;29;20045;-77
2023/10/31 08:50:26;;;;;;;424.43;404.63;;;10.30;99.90;;;;;;4894028;29;20284;-77
2023/10/31 08:52:52;;;;;;;549.13;522.50;;;10.30;99.90;;;;;;4908964;29;20307;-76
2023/10/31 08:55:18;;;;;;;536.07;509.57;;;10.30;99.90;;;;;;4874902;29;20486;-76
2023/10/31 08:57:44;;;;;;;585.50;556.20;;;10.30;99.90;;;;;;4877010;29;20293;-76
2023/10/31 09:00:10;;;;;;;628.23;592.93;;;10.40;99.90;;;;;;4877595;29;20046;-76
2023/10/31 09:02:36;;;;;;;581.87;552.93;;;10.40;99.90;;;;;;4878136;29;20029;-76
2023/10/31 09:05:02;;;;;;;585.10;556.10;;;10.40;99.90;;;;;;4873169;29;20297;-76
2023/10/31 09:07:28;;;;;;;580.97;552.03;;;10.50;99.90;;;;;;4873541;29;20036;-76
2023/10/31 09:09:53;;;;;;;582.63;552.30;;;10.50;99.90;;;;;;4873666;29;20037;-76
2023/10/31 09:12:19;;;;;;;559.80;531.90;;;10.50;99.90;;;;;;4873026;29;20040;-76
2023/10/31 09:14:45;;;;;;;568.97;540.93;;;10.60;99.90;;;;;;4883480;29;20057;-77
2023/10/31 09:17:11;;;;;;;534.07;508.73;;;10.60;99.90;;;;;;4870667;29;20057;-77
2023/10/31 09:19:37;;;;;;;592.40;562.57;;;10.60;99.90;;;;;;4874855;29;20049;-77
2023/10/31 09:22:06;;;;;;;605.60;575.00;;;10.60;99.90;;;;;;4874046;29;20848;-77
2023/10/31 09:24:35;;;;;;;593.20;563.27;;;10.60;99.90;;;;;;4887370;29;20398;-76
2023/10/31 09:27:01;;;;;;;314.90;300.37;;;10.50;99.90;;;;;;4867224;29;20289;-76
2023/10/31 09:29:27;;;;;;;425.53;404.70;;;10.50;99.90;;;;;;4885816;29;20864;-76
2023/10/31 09:31:53;;;;;;;339.33;324.77;;;10.50;99.90;;;;;;4872279;29;20096;-76
2023/10/31 09:34:19;;;;;;;421.27;398.87;;;10.50;99.90;;;;;;4873767;29;20288;-76
2023/10/31 09:36:45;;;;;;;325.27;311.47;;;10.50;99.90;;;;;;4886929;29;20886;-76
2023/10/31 09:39:10;;;;;;;339.47;324.47;;;10.40;99.90;;;;;;4884884;29;20044;-76
2023/10/31 09:41:36;;;;;;;500.30;476.37;;;10.40;99.90;;;;;;4872803;29;20622;-76
2023/10/31 09:44:02;;;;;;;530.17;505.13;;;10.40;99.90;;;;;;4888978;29;20040;-76
2023/10/31 09:46:31;;;;;;;494.10;469.17;;;10.40;99.90;;;;;;4870825;29;20304;-75
2023/10/31 09:48:57;;;;;;;500.87;477.57;;;10.50;99.90;;;;;;4889655;29;20040;-75
2023/10/31 09:51:22;;;;;;;479.83;456.70;;;10.50;99.90;;;;;;4890077;29;20287;-75
2023/10/31 09:53:53;;;;;;;516.00;490.20;;;10.60;99.90;;;;;;4879916;29;20508;-75
2023/10/31 09:56:19;;;;;;;531.13;505.33;;;10.70;99.90;;;;;;4890523;29;20107;-75
2023/10/31 09:58:45;;;;;;;584.17;555.33;;;10.80;99.90;;;;;;4872289;29;20797;-75
2023/10/31 10:01:11;;;;;;;548.37;520.83;;;10.80;99.90;;;;;;4887103;29;20402;-75
2023/10/31 10:03:38;;;;;;;542.67;516.23;;;10.90;99.90;;;;;;4889615;29;20307;-75
2023/10/31 10:06:04;;;;;;;552.03;525.03;;;10.90;99.90;;;;;;4886368;29;20569;-75
2023/10/31 10:08:30;;;;;;;539.57;513.57;;;11.00;99.90;;;;;;4872349;29;20303;-75
2023/10/31 10:10:55;;;;;;;540.83;514.97;;;11.00;99.90;;;;;;4888639;29;20296;-76
2023/10/31 10:13:21;;;;;;;572.33;543.87;;;11.00;99.90;;;;;;4885361;29;20457;-76
2023/10/31 10:15:55;;;;;;;505.27;480.60;;;11.00;99.90;;;;;;4907732;29;20061;-76
2023/10/31 10:18:35;;;;;;;561.13;533.43;;;10.90;99.90;;;;;;4890550;29;20390;-76
2023/10/31 10:21:05;;;;;;;477.53;454.37;;;10.90;99.90;;;;;;4889018;29;20296;-75
2023/10/31 10:23:32;;;;;;;564.93;537.17;;;10.90;99.90;;;;;;4875423;29;20749;-75
2023/10/31 10:26:00;;;;;;;537.93;511.37;;;11.00;99.90;;;;;;4875844;29;20320;-75
2023/10/31 10:28:27;;;;;;;505.00;480.20;;;11.00;99.90;;;;;;4889625;29;20420;-75
2023/10/31 10:30:53;;;;;;;542.43;515.07;;;11.10;99.90;;;;;;4876154;29;20280;-75
2023/10/31 10:33:20;;;;;;;573.87;544.63;;;11.10;99.90;;;;;;4889966;29;20296;-75
2023/10/31 10:35:46;;;;;;;511.47;486.67;;;11.10;99.90;;;;;;4874161;29;20296;-75
2023/10/31 10:38:14;;;;;;;543.33;515.43;;;11.10;99.90;;;;;;4874419;29;20284;-76
2023/10/31 10:40:43;;;;;;;437.87;417.63;;;11.10;99.90;;;;;;4869100;29;20052;-76
2023/10/31 10:43:28;;;;;;;457.27;435.67;;;11.10;99.90;;;;;;4874451;29;20336;-75
2023/10/31 10:45:58;;;;;;;475.50;453.13;;;11.10;99.90;;;;;;4890695;29;20304;-76
2023/10/31 10:48:26;;;;;;;474.30;451.70;;;11.10;99.90;;;;;;4873108;29;20045;-75
2023/10/31 10:51:16;;;;;;;444.23;423.60;;;11.10;99.90;;;;;;4890810;29;20281;-75
2023/10/31 10:53:49;;;;;;;457.07;434.83;;;11.20;99.90;;;;;;4863886;29;20297;-75
2023/10/31 10:56:56;;;;;;;482.43;459.97;;;11.20;99.90;;;;;;4890140;29;20380;-75
2023/10/31 10:59:33;;;;;;;445.47;425.40;;;11.20;99.90;;;;;;4833675;29;20302;-75
2023/10/31 11:02:01;;;;;;;355.77;340.20;;;11.20;99.90;;;;;;4840733;29;20708;-75
2023/10/31 11:04:27;;;;;;;444.80;424.23;;;11.20;99.90;;;;;;4866216;29;20327;-75
2023/10/31 11:06:53;;;;;;;460.67;439.13;;;11.20;99.90;;;;;;4876555;29;20292;-75
2023/10/31 11:09:20;;;;;;;458.93;437.83;;;11.20;99.90;;;;;;4893911;29;20293;-75
2023/10/31 11:11:48;;;;;;;475.10;452.63;;;11.30;99.90;;;;;;4874317;29;20360;-75
2023/10/31 11:14:16;;;;;;;475.20;453.23;;;11.30;99.90;;;;;;4891367;29;20372;-75
2023/10/31 11:16:52;;;;;;;466.83;445.70;;;11.20;99.90;;;;;;4892847;29;20292;-75
2023/10/31 11:19:19;;;;;;;405.93;387.87;;;11.20;99.90;;;;;;4892950;29;20296;-75
2023/10/31 11:22:17;;;;;;;441.67;421.40;;;11.10;99.90;;;;;;4894172;29;20289;-75
2023/10/31 11:24:42;;;;;;;393.57;376.20;;;11.10;99.90;;;;;;4882591;29;20356;-75
2023/10/31 11:27:08;;;;;;;366.40;349.90;;;11.10;99.90;;;;;;4892387;29;20321;-75
2023/10/31 11:29:36;;;;;;;469.13;447.57;;;11.10;99.90;;;;;;4876215;29;20040;-75
2023/10/31 11:32:01;;;;;;;486.87;464.50;;;11.10;99.90;;;;;;4874600;29;20072;-75
2023/10/31 11:34:28;;;;;;;456.03;434.97;;;11.10;99.90;;;;;;4879900;29;20344;-75
2023/10/31 11:37:14;;;;;;;453.13;432.57;;;11.20;99.90;;;;;;4892543;29;20116;-75
2023/10/31 11:39:39;;;;;;;394.10;376.03;;;11.10;99.90;;;;;;4891563;29;20304;-76
2023/10/31 11:42:18;;;;;;;437.07;417.73;;;11.10;99.90;;;;;;4894349;29;20676;-76
2023/10/31 11:44:56;;;;;;;396.30;378.43;;;11.10;99.90;;;;;;4890944;29;20568;-76
2023/10/31 11:47:22;;;;;;;414.03;395.70;;;11.10;99.90;;;;;;4879527;29;20336;-76
2023/10/31 11:49:48;;;;;;;401.80;383.57;;;11.00;99.90;;;;;;4875079;29;20280;-75
2023/10/31 11:52:18;;;;;;;364.70;348.40;;;10.90;99.90;;;;;;4877889;29;20396;-75
2023/10/31 11:54:44;;;;;;;435.57;415.73;;;10.80;99.90;;;;;;4874247;29;20040;-77
2023/10/31 11:57:09;;;;;;;371.17;354.63;;;10.80;99.90;;;;;;4891095;29;20354;-77
2023/10/31 11:59:39;;;;;;;422.30;403.23;;;10.90;99.90;;;;;;4894311;29;20293;-76
2023/10/31 12:02:15;;;;;;;430.73;411.50;;;11.00;99.90;;;;;;4876171;29;20044;-76
2023/10/31 12:04:41;;;;;;;412.97;394.33;;;11.10;99.90;;;;;;4891449;29;20300;-76
2023/10/31 12:07:08;;;;;;;413.27;394.93;;;11.20;99.90;;;;;;4878064;29;20292;-76
2023/10/31 12:09:44;;;;;;;463.87;442.30;;;11.30;99.90;;;;;;4890243;29;20300;-76
2023/10/31 12:12:10;;;;;;;352.23;336.47;;;11.40;99.90;;;;;;4889815;29;21271;-76